createdAt,value
2022-12-24T00:01:04.053Z,7.42
2022-12-24T00:03:30.972Z,7.45
2022-12-24T00:05:57.793Z,7.09
2022-12-24T00:08:24.539Z,7.19
2022-12-24T00:10:52.412Z,7.18
2022-12-24T00:13:20.004Z,7.20
2022-12-24T00:15:47.124Z,7.04
2022-12-24T00:18:13.796Z,7.03
2022-12-24T00:20:40.767Z,7.21
2022-12-24T00:23:07.455Z,7.01
2022-12-24T00:25:34.212Z,7.19
2022-12-24T00:28:00.818Z,7.19
2022-12-24T00:30:27.341Z,7.09
2022-12-24T00:32:54.632Z,7.33
2022-12-24T00:35:21.282Z,7.20
2022-12-24T00:37:48.602Z,7.37
2022-12-24T00:40:16.942Z,7.54
2022-12-24T00:42:43.795Z,7.64
2022-12-24T00:45:11.660Z,7.74
2022-12-24T00:47:38.793Z,7.55
2022-12-24T00:50:06.274Z,7.50
2022-12-24T00:52:33.284Z,7.46
2022-12-24T00:54:59.917Z,7.29
2022-12-24T00:57:26.760Z,7.51
2022-12-24T00:59:53.366Z,7.47
2022-12-24T01:02:20.160Z,7.53
2022-12-24T01:05:05.601Z,7.49
2022-12-24T01:07:32.355Z,7.47
2022-12-24T01:09:59.021Z,7.40
2022-12-24T01:12:25.877Z,7.43
2022-12-24T01:14:52.491Z,7.28
2022-12-24T01:17:19.127Z,7.17
2022-12-24T01:19:45.855Z,7.28
2022-12-24T01:22:12.583Z,7.58
2022-12-24T01:24:41.269Z,7.55
2022-12-24T01:27:07.922Z,7.39
2022-12-24T01:29:34.920Z,7.45
2022-12-24T01:32:01.964Z,7.30
2022-12-24T01:34:28.700Z,7.44
2022-12-24T01:36:55.291Z,7.53
2022-12-24T01:39:21.901Z,7.64
2022-12-24T01:42:07.200Z,7.61
2022-12-24T01:44:37.396Z,7.37
2022-12-24T01:47:27.565Z,7.37
2022-12-24T01:49:59.654Z,7.25
2022-12-24T01:52:30.968Z,7.33
2022-12-24T01:54:59.805Z,7.09
2022-12-24T01:57:32.072Z,7.34
2022-12-24T02:00:03.213Z,7.56
2022-12-24T02:02:33.680Z,7.47
2022-12-24T02:05:08.533Z,7.60
2022-12-24T02:07:35.583Z,7.63
2022-12-24T02:10:04.842Z,7.50
2022-12-24T02:12:35.246Z,7.46
2022-12-24T02:15:02.878Z,7.35
2022-12-24T02:17:31.746Z,7.32
2022-12-24T02:20:16.551Z,7.53
2022-12-24T02:23:20.997Z,7.15
2022-12-24T02:25:58.138Z,7.29
2022-12-24T02:28:27.524Z,7.23
2022-12-24T02:31:03.304Z,6.95
2022-12-24T02:33:53.775Z,7.29
2022-12-24T02:36:34.863Z,7.25
2022-12-24T02:39:05.903Z,7.43
2022-12-24T02:41:58.404Z,7.21
2022-12-24T02:44:28.562Z,7.47
2022-12-24T02:46:57.175Z,7.11
2022-12-24T02:49:23.994Z,7.03
2022-12-24T02:51:50.705Z,7.04
2022-12-24T02:54:18.090Z,7.02
2022-12-24T02:57:03.171Z,6.92
2022-12-24T02:59:45.472Z,6.92
2022-12-24T03:02:24.763Z,6.98
2022-12-24T03:05:02.659Z,7.16
2022-12-24T03:07:38.945Z,7.17
2022-12-24T03:10:31.102Z,6.82
2022-12-24T03:13:12.685Z,6.82
2022-12-24T03:15:41.146Z,6.75
2022-12-24T03:18:10.763Z,6.70
2022-12-24T03:20:44.943Z,6.72
2022-12-24T03:23:12.983Z,6.82
2022-12-24T03:25:42.196Z,6.82
2022-12-24T03:28:11.664Z,6.69
2022-12-24T03:30:44.421Z,6.89
2022-12-24T03:33:12.355Z,6.71
2022-12-24T03:35:40.100Z,6.67
2022-12-24T03:38:07.207Z,6.96
2022-12-24T03:40:33.901Z,6.89
2022-12-24T03:43:00.488Z,7.02
2022-12-24T03:45:27.327Z,6.73
2022-12-24T03:47:54.061Z,6.97
2022-12-24T03:50:20.820Z,6.97
2022-12-24T03:52:47.426Z,6.79
2022-12-24T03:55:14.004Z,6.93
2022-12-24T03:57:40.658Z,6.62
2022-12-24T04:00:07.983Z,6.61
2022-12-24T04:02:43.576Z,6.73
2022-12-24T04:05:15.772Z,6.69
2022-12-24T04:07:42.404Z,6.75
2022-12-24T04:10:10.059Z,6.51
2022-12-24T04:12:37.659Z,6.62
2022-12-24T04:15:05.312Z,6.46
2022-12-24T04:17:32.460Z,6.73
2022-12-24T04:19:59.716Z,6.61
2022-12-24T04:22:26.706Z,6.48
2022-12-24T04:24:53.432Z,6.54
2022-12-24T04:27:20.649Z,6.54
2022-12-24T04:29:48.628Z,6.68
2022-12-24T04:32:15.405Z,6.34
2022-12-24T04:34:42.033Z,6.49
2022-12-24T04:37:08.547Z,6.31
2022-12-24T04:39:35.250Z,6.54
2022-12-24T04:42:02.006Z,6.67
2022-12-24T04:44:28.653Z,6.48
2022-12-24T04:46:55.313Z,6.36
2022-12-24T04:49:22.009Z,6.59
2022-12-24T04:51:48.662Z,6.50
2022-12-24T04:54:15.865Z,6.43
2022-12-24T04:56:42.581Z,6.54
2022-12-24T04:59:09.804Z,6.45
2022-12-24T05:01:36.563Z,6.41
2022-12-24T05:04:03.348Z,6.41
2022-12-24T05:06:32.324Z,6.43
2022-12-24T05:08:59.989Z,6.41
2022-12-24T05:11:27.548Z,6.49
2022-12-24T05:13:54.281Z,6.44
2022-12-24T05:16:22.723Z,6.66
2022-12-24T05:18:50.032Z,6.59
2022-12-24T05:21:20.706Z,6.86
2022-12-24T05:24:06.214Z,6.81
2022-12-24T05:26:44.828Z,6.60
2022-12-24T05:29:14.917Z,6.71
2022-12-24T05:31:43.590Z,6.59
2022-12-24T05:34:11.389Z,6.63
2022-12-24T05:36:38.576Z,6.65
2022-12-24T05:39:11.666Z,6.63
2022-12-24T05:41:42.144Z,6.70
2022-12-24T05:44:08.728Z,6.71
2022-12-24T05:46:35.478Z,6.37
2022-12-24T05:49:02.077Z,6.58
2022-12-24T05:51:28.807Z,6.71
2022-12-24T05:53:55.476Z,6.54
2022-12-24T05:56:23.993Z,6.47
2022-12-24T05:58:52.235Z,6.67
2022-12-24T06:01:19.602Z,6.69
2022-12-24T06:03:46.802Z,6.45
2022-12-24T06:06:15.478Z,6.59
2022-12-24T06:08:42.687Z,6.36
2022-12-24T06:11:12.443Z,6.46
2022-12-24T06:13:40.876Z,6.52
2022-12-24T06:16:14.093Z,6.19
2022-12-24T06:18:41.402Z,6.27
2022-12-24T06:21:08.091Z,6.52
2022-12-24T06:23:37.122Z,6.37
2022-12-24T06:26:06.003Z,6.22
2022-12-24T06:28:35.495Z,6.39
2022-12-24T06:31:03.702Z,6.48
2022-12-24T06:33:32.319Z,6.58
2022-12-24T06:35:59.419Z,6.29
2022-12-24T06:38:26.225Z,6.62
2022-12-24T06:40:53.161Z,6.40
2022-12-24T06:43:20.180Z,6.36
2022-12-24T06:45:48.013Z,6.54
2022-12-24T06:48:21.052Z,6.34
2022-12-24T06:50:47.980Z,6.08
2022-12-24T06:53:14.771Z,6.15
2022-12-24T06:55:41.585Z,6.13
2022-12-24T06:58:08.472Z,5.99
2022-12-24T07:00:35.761Z,6.08
2022-12-24T07:03:02.794Z,6.05
2022-12-24T07:05:29.893Z,6.08
2022-12-24T07:07:57.272Z,6.08
2022-12-24T07:10:24.041Z,6.04
2022-12-24T07:12:50.754Z,6.41
2022-12-24T07:15:17.913Z,6.09
2022-12-24T07:17:44.694Z,6.27
2022-12-24T07:20:14.809Z,6.31
2022-12-24T07:22:42.178Z,6.04
2022-12-24T07:25:10.508Z,6.05
2022-12-24T07:27:37.613Z,6.06
2022-12-24T07:30:05.438Z,6.14
2022-12-24T07:32:32.247Z,5.92
2022-12-24T07:34:59.073Z,5.98
2022-12-24T07:37:25.688Z,6.19
2022-12-24T07:39:53.431Z,6.36
2022-12-24T07:42:21.375Z,6.38
2022-12-24T07:44:49.556Z,6.50
2022-12-24T07:47:16.490Z,6.04
2022-12-24T07:49:43.546Z,6.21
2022-12-24T07:52:10.322Z,6.23
2022-12-24T07:54:36.980Z,6.60
2022-12-24T07:57:03.701Z,6.48
2022-12-24T07:59:30.573Z,6.82
2022-12-24T08:01:57.383Z,7.10
2022-12-24T08:04:24.460Z,6.99
2022-12-24T08:06:51.168Z,6.82
2022-12-24T08:09:17.883Z,7.09
2022-12-24T08:11:51.421Z,6.81
2022-12-24T08:14:19.610Z,6.80
2022-12-24T08:16:46.534Z,6.64
2022-12-24T08:19:13.939Z,6.59
2022-12-24T08:21:41.465Z,6.73
2022-12-24T08:24:08.267Z,6.89
2022-12-24T08:26:35.063Z,6.46
2022-12-24T08:29:03.114Z,6.63
2022-12-24T08:31:31.184Z,6.55
2022-12-24T08:33:57.993Z,6.70
2022-12-24T08:36:24.601Z,6.67
2022-12-24T08:38:51.570Z,6.65
2022-12-24T08:41:18.279Z,6.80
2022-12-24T08:43:45.031Z,6.70
2022-12-24T08:46:11.908Z,6.81
2022-12-24T08:48:38.702Z,6.76
2022-12-24T08:51:10.077Z,7.11
2022-12-24T08:53:37.609Z,7.09
2022-12-24T08:56:05.846Z,7.04
2022-12-24T08:58:32.904Z,7.11
2022-12-24T09:01:00.025Z,7.10
2022-12-24T09:03:28.026Z,7.01
2022-12-24T09:05:55.355Z,6.92
2022-12-24T09:08:22.251Z,6.93
2022-12-24T09:10:48.982Z,6.87
2022-12-24T09:13:15.624Z,6.85
2022-12-24T09:15:42.273Z,7.00
2022-12-24T09:18:09.052Z,7.49
2022-12-24T09:20:35.667Z,7.47
2022-12-24T09:23:02.501Z,6.94
2022-12-24T09:25:29.162Z,6.99
2022-12-24T09:27:55.815Z,7.38
2022-12-24T09:30:22.496Z,7.95
2022-12-24T09:32:51.764Z,7.45
2022-12-24T09:35:18.507Z,8.07
2022-12-24T09:37:45.239Z,7.90
2022-12-24T09:40:25.218Z,8.09
2022-12-24T09:42:53.581Z,7.60
2022-12-24T09:45:28.424Z,8.13
2022-12-24T09:48:10.210Z,7.88
2022-12-24T09:50:46.537Z,7.99
2022-12-24T09:53:19.529Z,8.01
2022-12-24T09:55:50.492Z,8.01
2022-12-24T09:58:26.422Z,7.97
2022-12-24T10:00:54.653Z,7.89
2022-12-24T10:03:21.341Z,7.57
2022-12-24T10:05:57.061Z,7.52
2022-12-24T10:08:30.412Z,7.83
2022-12-24T10:11:10.927Z,7.68
2022-12-24T10:14:32.074Z,8.06
2022-12-24T10:16:58.752Z,7.93
2022-12-24T10:19:38.266Z,8.04
2022-12-24T10:22:38.873Z,7.77
2022-12-24T10:25:21.820Z,7.66
2022-12-24T10:27:48.896Z,7.80
2022-12-24T10:30:19.820Z,7.97
2022-12-24T10:32:55.851Z,7.78
2022-12-24T10:35:28.085Z,7.69
2022-12-24T10:37:56.670Z,7.71
2022-12-24T10:40:43.104Z,7.64
2022-12-24T10:43:20.084Z,7.47
2022-12-24T10:45:50.896Z,7.53
2022-12-24T10:48:31.881Z,7.51
2022-12-24T10:51:03.182Z,7.27
2022-12-24T10:53:44.503Z,7.37
2022-12-24T10:56:14.224Z,7.56
2022-12-24T10:58:53.621Z,7.77
2022-12-24T11:01:41.320Z,8.09
2022-12-24T11:04:16.809Z,7.86
2022-12-24T11:06:54.965Z,7.41
2022-12-24T11:09:28.671Z,7.71
2022-12-24T11:11:58.794Z,7.78
2022-12-24T11:14:33.521Z,7.57
2022-12-24T11:17:00.517Z,7.51
2022-12-24T11:19:33.608Z,7.70
2022-12-24T11:22:04.808Z,7.72
2022-12-24T11:24:36.399Z,7.39
2022-12-24T11:27:32.804Z,7.61
2022-12-24T11:30:20.506Z,7.67
2022-12-24T11:33:08.279Z,7.20
2022-12-24T11:35:43.614Z,6.82
2022-12-24T11:38:12.283Z,6.94
2022-12-24T11:40:44.935Z,6.98
2022-12-24T11:43:20.637Z,6.79
2022-12-24T11:45:50.333Z,6.93
2022-12-24T11:48:34.927Z,6.98
2022-12-24T11:51:04.271Z,7.23
2022-12-24T11:53:55.615Z,7.15
2022-12-24T11:56:34.479Z,6.98
2022-12-24T11:59:29.331Z,7.13
2022-12-24T12:02:02.758Z,7.08
2022-12-24T12:04:34.125Z,7.71
2022-12-24T12:07:14.333Z,7.62
2022-12-24T12:09:46.301Z,7.20
2022-12-24T12:12:22.348Z,7.10
2022-12-24T12:14:57.184Z,7.24
2022-12-24T12:17:55.706Z,7.13
2022-12-24T12:20:22.445Z,7.41
2022-12-24T12:22:56.272Z,7.29
2022-12-24T12:25:32.079Z,7.20
2022-12-24T12:28:02.457Z,6.90
2022-12-24T12:30:31.737Z,7.15
2022-12-24T12:33:35.522Z,7.08
2022-12-24T12:36:03.822Z,7.12
2022-12-24T12:38:30.906Z,7.00
2022-12-24T12:41:28.108Z,6.78
2022-12-24T12:44:22.672Z,6.74
2022-12-24T12:47:14.745Z,6.89
2022-12-24T12:50:08.841Z,7.17
2022-12-24T12:53:04.573Z,7.01
2022-12-24T12:55:37.244Z,6.65
2022-12-24T12:58:08.366Z,6.76
2022-12-24T13:00:39.952Z,6.60
2022-12-24T13:03:23.420Z,6.85
2022-12-24T13:05:59.442Z,6.95
2022-12-24T13:08:46.488Z,6.81
2022-12-24T13:11:40.074Z,7.03
2022-12-24T13:14:50.303Z,6.74
2022-12-24T13:17:37.885Z,6.95
2022-12-24T13:20:29.633Z,6.93
2022-12-24T13:22:58.758Z,6.92
2022-12-24T13:25:38.760Z,7.20
2022-12-24T13:28:30.635Z,7.22
2022-12-24T13:31:24.688Z,7.04
2022-12-24T13:33:54.387Z,6.85
2022-12-24T13:36:21.978Z,6.68
2022-12-24T13:38:58.337Z,6.54
2022-12-24T13:41:39.489Z,6.77
2022-12-24T13:44:07.569Z,6.83
2022-12-24T13:47:12.177Z,7.01
2022-12-24T13:49:47.205Z,7.11
2022-12-24T13:52:18.815Z,7.08
2022-12-24T13:54:49.138Z,6.86
2022-12-24T13:57:32.951Z,6.89
2022-12-24T14:00:02.426Z,6.96
2022-12-24T14:02:48.641Z,7.08
2022-12-24T14:05:35.375Z,7.01
2022-12-24T14:08:07.035Z,7.21
2022-12-24T14:10:58.816Z,7.24
2022-12-24T14:13:41.154Z,7.47
2022-12-24T14:16:31.042Z,7.37
2022-12-24T14:19:04.038Z,7.30
2022-12-24T14:21:37.495Z,7.17
2022-12-24T14:24:26.835Z,7.41
2022-12-24T14:27:01.837Z,7.50
2022-12-24T14:29:32.769Z,7.59
2022-12-24T14:32:04.228Z,7.61
2022-12-24T14:34:32.226Z,7.63
2022-12-24T14:37:03.049Z,7.62
2022-12-24T14:39:31.738Z,7.98
2022-12-24T14:42:10.823Z,8.01
2022-12-24T14:44:46.219Z,7.95
2022-12-24T14:47:26.128Z,8.43
2022-12-24T14:50:22.120Z,8.38
2022-12-24T14:53:07.114Z,8.46
2022-12-24T14:55:46.071Z,8.51
2022-12-24T14:58:26.024Z,8.16
2022-12-24T15:00:58.684Z,7.58
2022-12-24T15:03:27.086Z,7.23
2022-12-24T15:05:58.227Z,7.28
2022-12-24T15:08:50.047Z,7.26
2022-12-24T15:11:22.883Z,7.49
2022-12-24T15:13:56.867Z,7.92
2022-12-24T15:16:35.437Z,7.74
2022-12-24T15:19:04.345Z,7.76
2022-12-24T15:21:34.375Z,7.60
2022-12-24T15:24:01.259Z,7.57
2022-12-24T15:26:32.602Z,7.33
2022-12-24T15:29:03.694Z,7.16
2022-12-24T15:31:31.260Z,6.90
2022-12-24T15:33:59.445Z,6.96
2022-12-24T15:36:37.679Z,7.00
2022-12-24T15:39:07.621Z,6.94
2022-12-24T15:42:00.943Z,6.96
2022-12-24T15:44:33.262Z,6.82
2022-12-24T15:47:01.182Z,6.87
2022-12-24T15:49:29.837Z,6.98
2022-12-24T15:52:10.697Z,6.99
2022-12-24T15:54:37.523Z,6.91
2022-12-24T15:57:34.009Z,7.01
2022-12-24T16:00:03.146Z,7.16
2022-12-24T16:02:41.824Z,7.15
2022-12-24T16:05:30.481Z,7.08
2022-12-24T16:08:15.143Z,6.80
2022-12-24T16:10:45.924Z,6.77
2022-12-24T16:13:18.083Z,6.99
2022-12-24T16:16:00.603Z,6.91
2022-12-24T16:18:40.400Z,6.83
2022-12-24T16:21:07.892Z,6.78
2022-12-24T16:23:45.115Z,6.93
2022-12-24T16:26:11.818Z,6.46
2022-12-24T16:28:38.856Z,6.67
2022-12-24T16:31:05.978Z,6.82
2022-12-24T16:33:32.775Z,6.58
2022-12-24T16:35:59.473Z,6.71
2022-12-24T16:38:26.203Z,7.09
2022-12-24T16:40:52.842Z,7.55
2022-12-24T16:43:38.150Z,8.19
2022-12-24T16:46:07.194Z,7.58
2022-12-24T16:48:38.285Z,6.99
2022-12-24T16:51:05.057Z,7.08
2022-12-24T16:53:31.779Z,6.84
2022-12-24T16:55:58.471Z,6.82
2022-12-24T16:58:25.128Z,6.48
2022-12-24T17:00:51.864Z,6.44
2022-12-24T17:03:18.581Z,6.77
2022-12-24T17:05:45.424Z,6.72
2022-12-24T17:08:13.312Z,6.92
2022-12-24T17:10:40.532Z,7.01
2022-12-24T17:13:07.513Z,6.54
2022-12-24T17:15:34.624Z,6.39
2022-12-24T17:18:01.302Z,6.33
2022-12-24T17:20:28.112Z,6.20
2022-12-24T17:22:54.821Z,6.40
2022-12-24T17:25:21.539Z,6.18
2022-12-24T17:27:48.458Z,6.32
2022-12-24T17:30:16.346Z,6.45
2022-12-24T17:32:43.219Z,6.33
2022-12-24T17:35:10.283Z,6.27
2022-12-24T17:37:36.915Z,5.68
2022-12-24T17:40:03.655Z,5.61
2022-12-24T17:42:30.508Z,5.41
2022-12-24T17:44:57.162Z,5.33
2022-12-24T17:47:23.890Z,5.26
2022-12-24T17:49:50.637Z,5.37
2022-12-24T17:52:17.261Z,5.35
2022-12-24T17:54:43.842Z,5.44
2022-12-24T17:57:10.471Z,5.59
2022-12-24T17:59:37.309Z,5.64
2022-12-24T18:02:04.139Z,5.68
2022-12-24T18:04:30.886Z,5.78
2022-12-24T18:07:02.051Z,5.72
2022-12-24T18:09:30.034Z,5.59
2022-12-24T18:11:56.800Z,5.67
2022-12-24T18:14:23.617Z,5.63
2022-12-24T18:16:50.469Z,5.65
2022-12-24T18:19:17.288Z,5.60
2022-12-24T18:21:44.190Z,5.41
2022-12-24T18:24:12.981Z,5.49
2022-12-24T18:26:39.935Z,5.38
2022-12-24T18:29:08.794Z,5.36
2022-12-24T18:31:36.614Z,5.34
2022-12-24T18:34:06.440Z,5.51
2022-12-24T18:36:33.484Z,5.54
2022-12-24T18:39:00.407Z,5.57
2022-12-24T18:41:29.448Z,5.62
2022-12-24T18:43:57.957Z,5.81
2022-12-24T18:46:27.310Z,5.75
2022-12-24T18:48:55.448Z,5.77
2022-12-24T18:51:24.036Z,5.84
2022-12-24T18:53:51.589Z,5.81
2022-12-24T18:56:23.682Z,5.77
2022-12-24T18:58:54.083Z,5.70
2022-12-24T19:01:32.757Z,5.55
2022-12-24T19:04:00.088Z,6.14
2022-12-24T19:06:27.813Z,6.09
2022-12-24T19:08:57.862Z,5.84
2022-12-24T19:11:27.282Z,6.05
2022-12-24T19:13:54.078Z,5.93
2022-12-24T19:16:21.687Z,5.87
2022-12-24T19:18:48.665Z,6.11
2022-12-24T19:21:15.714Z,5.84
2022-12-24T19:23:42.754Z,5.96
2022-12-24T19:26:14.265Z,6.06
2022-12-24T19:28:41.799Z,6.32
2022-12-24T19:31:14.683Z,6.45
2022-12-24T19:33:47.394Z,6.16
2022-12-24T19:36:20.431Z,6.23
2022-12-24T19:38:47.512Z,6.03
2022-12-24T19:41:16.944Z,5.88
2022-12-24T19:43:47.121Z,5.85
2022-12-24T19:46:17.427Z,5.94
2022-12-24T19:48:49.218Z,6.00
2022-12-24T19:51:16.888Z,5.88
2022-12-24T19:53:43.690Z,5.65
2022-12-24T19:56:10.555Z,5.73
2022-12-24T19:58:37.157Z,5.82
2022-12-24T20:01:12.935Z,6.05
2022-12-24T20:03:42.455Z,5.88
2022-12-24T20:06:09.189Z,5.61
2022-12-24T20:08:37.310Z,5.37
2022-12-24T20:11:06.809Z,5.23
2022-12-24T20:13:34.772Z,5.24
2022-12-24T20:16:06.953Z,5.27
2022-12-24T20:18:34.309Z,5.01
2022-12-24T20:21:02.874Z,5.22
2022-12-24T20:23:29.800Z,5.52
2022-12-24T20:26:02.290Z,5.65
2022-12-24T20:28:31.127Z,5.37
2022-12-24T20:30:57.806Z,5.47
2022-12-24T20:33:24.533Z,5.52
2022-12-24T20:35:51.350Z,5.59
2022-12-24T20:38:18.767Z,5.57
2022-12-24T20:40:46.801Z,5.49
2022-12-24T20:43:13.757Z,5.53
2022-12-24T20:45:41.197Z,5.37
2022-12-24T20:48:08.311Z,5.82
2022-12-24T20:50:35.061Z,5.79
2022-12-24T20:53:03.601Z,5.74
2022-12-24T20:55:31.286Z,5.98
2022-12-24T20:57:57.935Z,5.92
2022-12-24T21:00:25.101Z,6.03
2022-12-24T21:02:53.170Z,6.19
2022-12-24T21:05:19.967Z,6.09
2022-12-24T21:07:48.040Z,6.05
2022-12-24T21:10:15.884Z,5.86
2022-12-24T21:12:48.987Z,6.19
2022-12-24T21:15:37.278Z,6.05
2022-12-24T21:18:10.239Z,6.14
2022-12-24T21:20:38.669Z,6.12
2022-12-24T21:23:05.397Z,6.04
2022-12-24T21:25:32.576Z,6.00
2022-12-24T21:27:59.300Z,6.03
2022-12-24T21:30:26.043Z,5.92
2022-12-24T21:32:52.768Z,6.22
2022-12-24T21:35:19.593Z,6.10
2022-12-24T21:37:46.339Z,5.90
2022-12-24T21:40:13.231Z,6.21
2022-12-24T21:42:39.905Z,6.54
2022-12-24T21:45:06.811Z,6.33
2022-12-24T21:47:34.974Z,6.10
2022-12-24T21:50:21.171Z,6.31
2022-12-24T21:52:48.983Z,6.53
2022-12-24T21:55:15.955Z,6.16
2022-12-24T21:57:54.739Z,5.91
2022-12-24T22:00:21.624Z,5.87
2022-12-24T22:02:56.868Z,5.95
2022-12-24T22:05:26.094Z,6.01
2022-12-24T22:08:13.385Z,5.99
2022-12-24T22:10:59.010Z,5.87
2022-12-24T22:13:25.848Z,5.70
2022-12-24T22:15:54.090Z,6.13
2022-12-24T22:18:23.853Z,5.82
2022-12-24T22:20:51.014Z,5.89
2022-12-24T22:23:19.222Z,6.12
2022-12-24T22:25:46.619Z,6.07
2022-12-24T22:28:13.672Z,5.96
2022-12-24T22:30:41.885Z,6.24
2022-12-24T22:33:10.642Z,6.22
2022-12-24T22:35:39.380Z,6.55
2022-12-24T22:38:07.754Z,6.92
2022-12-24T22:40:34.650Z,6.84
2022-12-24T22:43:01.396Z,6.77
2022-12-24T22:45:28.466Z,6.34
2022-12-24T22:47:55.452Z,6.13
2022-12-24T22:50:22.505Z,6.08
2022-12-24T22:52:49.231Z,5.87
2022-12-24T22:55:16.027Z,6.14
2022-12-24T22:57:42.721Z,6.41
2022-12-24T23:00:17.628Z,6.61
2022-12-24T23:02:44.537Z,6.76
2022-12-24T23:05:15.605Z,6.54
2022-12-24T23:07:42.229Z,6.17
2022-12-24T23:10:08.981Z,6.05
2022-12-24T23:12:54.295Z,6.03
2022-12-24T23:15:21.001Z,6.07
2022-12-24T23:17:48.951Z,6.19
2022-12-24T23:20:16.188Z,6.17
2022-12-24T23:22:43.383Z,6.13
2022-12-24T23:25:10.315Z,6.12
2022-12-24T23:27:36.986Z,5.95
2022-12-24T23:30:04.211Z,5.89
2022-12-24T23:32:31.724Z,6.05
2022-12-24T23:34:58.365Z,5.84
2022-12-24T23:37:28.226Z,5.74
2022-12-24T23:39:59.744Z,5.69
2022-12-24T23:42:26.399Z,5.88
2022-12-24T23:44:53.101Z,6.26
2022-12-24T23:47:20.724Z,6.39
2022-12-24T23:49:47.352Z,6.69
2022-12-24T23:52:13.954Z,6.58
2022-12-24T23:54:40.695Z,7.00
2022-12-24T23:57:07.425Z,7.18
2022-12-24T23:59:35.340Z,7.07
